Aérodrome :
LOGIN :

S'inscrire | Disclaimer

   EN    FR    IT 

 










Légende :    VFR   VFR Marginal   IFR   IFR Intensif   IFR Très Intensif
Visi : 
Plafond : 
>= 8 km
>= 3000ft
5 à 8 km
1000 à 3000 ft
1500m à 5 km
500 à 1000 ft
800 à 1500m
200 à 500 ft
< 800m
< 200 ft
Symboles :   Orages  Brouillard  Fortes neiges  Fortes précipitations  Vent > 20 kt
SIGMETs :   Divers  Orages  Givrage  Turbulence  Onde Orograph.  Cendres Volcan.






- Altitude de l'aérodrome : 267 ft


EGDR - Culdrose Navy

DERNIER METAR :
  • 131021Z 23010KT 9999 FEW025 BKN050 17/13 Q1026 NOSIG RMK BLU BLU

METARs EXPIRÉS :
  • 130950Z 22009KT 9999 FEW025 BKN045 17/13 Q1026 NOSIG RMK BLU BLU
  • 130927Z 22008KT 9999 BKN045 16/12 Q1026 NOSIG RMK BLU BLU
  • 130850Z 22008KT CAVOK 17/12 Q1027 NOSIG RMK BLU BLU
  • 130822Z 22008KT CAVOK 16/12 Q1026 NOSIG RMK BLU BLU
  • 130750Z 22007KT CAVOK 16/12 Q1027 NOSIG RMK BLU BLU

TAF AMD TAF EGDR
Valide du 13 à 09h jusqu'au 13 à 18h UTC


130757Z 1309/1318 22008KT 9999 BKN060
TEMPO 1310/1315 4000 -RADZ BKN008
PROB30
TEMPO 1310/1318 4000 TSRA SCT060CB
BECMG 1313/1315 3000 -DZ BR SCT004 BKN007
TEMPO 1314/1318 0500 FG BKN002



MET'MAP, la Météo Aéronautique d'un coup d'oeil ! - Copyright ORBIFLY Décembre 2007 - Disclaimer

ORBIFLY MET'MAP TEAM :

Programmation & Développement : Alexandra Zaïnal
Sur une idée originale de : Baudouin d'Aumeries
Assistance à la programmation : Marc-Olivier Méhu
Soutien technique & logistique : Manuel Goepfert

Contact : metmap@orbifly.com




SOURCES & CREDITS :

   NOAA